Time,TemperatureF,DewpointF,PressureIn,WindDirection,WindDirectionDegrees,WindSpeedMPH,WindSpeedGustMPH,Humidity,HourlyPrecipIn,Conditions,Clouds,dailyrainin,SoftwareType,DateUTC
2012-06-18 00:00:00,77.8,60.4,29.85,NW,323,0.0,0.0,55,0.00,,,0.00,VWS V13.01,2012-06-18 05:00:00,
2012-06-18 00:05:00,77.7,60.7,29.85,NW,323,0.0,0.0,56,0.00,,,0.00,VWS V13.01,2012-06-18 05:05:00,
2012-06-18 00:10:00,77.7,60.7,29.85,NW,323,0.0,0.0,56,0.00,,,0.00,VWS V13.01,2012-06-18 05:10:00,
2012-06-18 00:15:00,77.5,60.6,29.85,NW,323,0.0,0.0,56,0.00,,,0.00,VWS V13.01,2012-06-18 05:15:00,
2012-06-18 00:20:00,77.3,60.9,29.85,NW,323,0.0,0.0,57,0.00,,,0.00,VWS V13.01,2012-06-18 05:20:00,
2012-06-18 00:25:00,77.1,61.2,29.85,NW,323,0.0,0.0,58,0.00,,,0.00,VWS V13.01,2012-06-18 05:25:00,
2012-06-18 00:30:00,76.8,60.9,29.85,NW,324,0.0,0.0,58,0.00,,,0.00,VWS V13.01,2012-06-18 05:30:00,
2012-06-18 00:35:00,76.8,60.9,29.85,NW,324,0.0,0.0,58,0.00,,,0.00,VWS V13.01,2012-06-18 05:35:00,
2012-06-18 00:40:00,76.6,61.2,29.85,NW,324,0.0,0.0,59,0.00,,,0.00,VWS V13.01,2012-06-18 05:40:00,
2012-06-18 00:45:00,76.6,61.7,29.85,NW,324,0.0,0.0,60,0.00,,,0.00,VWS V13.01,2012-06-18 05:45:00,
2012-06-18 00:50:00,76.6,61.7,29.85,NW,324,0.0,0.0,60,0.00,,,0.00,VWS V13.01,2012-06-18 05:50:00,
2012-06-18 00:55:00,76.4,62.0,29.85,NW,324,0.0,0.0,61,0.00,,,0.00,VWS V13.01,2012-06-18 05:55:00,
2012-06-18 01:00:00,76.0,62.1,29.83,NE,39,2.7,2.7,62,0.00,,,0.00,VWS V13.01,2012-06-18 06:00:00,
2012-06-18 01:05:00,75.9,63.7,29.83,NNE,26,0.0,0.0,66,0.00,,,0.00,VWS V13.01,2012-06-18 06:05:00,
2012-06-18 01:10:00,75.9,62.8,29.83,NE,53,0.0,0.0,64,0.00,,,0.00,VWS V13.01,2012-06-18 06:10:00,
2012-06-18 01:15:00,76.0,63.9,29.83,SE,135,0.0,0.0,66,0.00,,,0.00,VWS V13.01,2012-06-18 06:15:00,
2012-06-18 01:20:00,76.4,63.3,29.83,North,353,0.0,0.0,64,0.00,,,0.00,VWS V13.01,2012-06-18 06:20:00,
2012-06-18 01:25:00,76.8,63.2,29.83,SSW,198,0.0,0.0,63,0.00,,,0.00,VWS V13.01,2012-06-18 06:25:00,
2012-06-18 01:30:00,76.9,64.3,29.83,ESE,103,0.0,0.0,65,0.00,,,0.00,VWS V13.01,2012-06-18 06:30:00,
2012-06-18 01:35:00,77.7,64.1,29.83,East,95,2.7,2.7,63,0.00,,,0.00,VWS V13.01,2012-06-18 06:35:00,
2012-06-18 01:40:00,78.4,63.8,29.83,ENE,78,2.7,3.1,61,0.00,,,0.00,VWS V13.01,2012-06-18 06:40:00,
2012-06-18 01:45:00,78.9,63.9,29.83,East,100,0.0,0.0,60,0.00,,,0.00,VWS V13.01,2012-06-18 06:45:00,
2012-06-18 01:50:00,79.5,64.4,29.83,ENE,70,3.1,3.6,60,0.00,,,0.00,VWS V13.01,2012-06-18 06:50:00,
2012-06-18 01:55:00,79.6,64.5,29.83,ENE,69,2.2,2.2,60,0.00,,,0.00,VWS V13.01,2012-06-18 06:55:00,
2012-06-18 02:00:00,79.5,63.4,29.83,NNE,18,2.2,2.2,58,0.00,,,0.00,VWS V13.01,2012-06-18 07:00:00,
2012-06-18 02:05:00,78.7,63.2,29.83,NNE,12,0.0,2.2,59,0.00,,,0.00,VWS V13.01,2012-06-18 07:05:00,
2012-06-18 02:10:00,78.0,63.0,29.83,NNE,13,0.0,0.0,60,0.00,,,0.00,VWS V13.01,2012-06-18 07:10:00,
2012-06-18 02:14:00,77.3,63.3,29.83,North,358,0.0,0.0,62,0.00,,,0.00,VWS V13.01,2012-06-18 07:14:00,
2012-06-18 02:19:00,76.9,63.4,29.83,North,350,0.0,0.0,63,0.00,,,0.00,VWS V13.01,2012-06-18 07:19:00,
2012-06-18 02:24:00,76.6,63.5,29.83,North,355,0.0,0.0,64,0.00,,,0.00,VWS V13.01,2012-06-18 07:24:00,
2012-06-18 02:29:00,76.4,63.8,29.83,North,355,0.0,0.0,65,0.00,,,0.00,VWS V13.01,2012-06-18 07:29:00,
2012-06-18 02:34:00,76.2,64.0,29.83,North,355,0.0,0.0,66,0.00,,,0.00,VWS V13.01,2012-06-18 07:34:00,
2012-06-18 02:39:00,76.0,64.3,29.83,NNW,347,0.0,0.0,67,0.00,,,0.00,VWS V13.01,2012-06-18 07:39:00,
2012-06-18 02:44:00,76.2,64.5,29.83,NNW,347,0.0,0.0,67,0.00,,,0.00,VWS V13.01,2012-06-18 07:44:00,
2012-06-18 02:49:00,76.2,64.9,29.83,NNW,344,0.0,0.0,68,0.00,,,0.00,VWS V13.01,2012-06-18 07:49:00,
2012-06-18 02:54:00,76.4,64.6,29.83,NNW,344,0.0,0.0,67,0.00,,,0.00,VWS V13.01,2012-06-18 07:54:00,
2012-06-18 02:59:00,76.4,64.6,29.83,NNW,344,0.0,0.0,67,0.00,,,0.00,VWS V13.01,2012-06-18 07:59:00,
2012-06-18 03:04:00,76.4,64.2,29.83,NNW,344,0.0,0.0,66,0.00,,,0.00,VWS V13.01,2012-06-18 08:04:00,
2012-06-18 03:09:00,76.2,64.5,29.83,NNW,344,0.0,0.0,67,0.00,,,0.00,VWS V13.01,2012-06-18 08:09:00,
2012-06-18 03:14:00,75.9,65.0,29.83,NNW,344,0.0,0.0,69,0.00,,,0.00,VWS V13.01,2012-06-18 08:14:00,
2012-06-18 03:19:00,75.7,65.2,29.83,NNW,344,0.0,0.0,70,0.00,,,0.00,VWS V13.01,2012-06-18 08:19:00,
2012-06-18 03:24:00,75.7,65.6,29.83,NNW,344,0.0,0.0,71,0.00,,,0.00,VWS V13.01,2012-06-18 08:24:00,
2012-06-18 03:29:00,75.7,65.2,29.83,NNW,344,0.0,0.0,70,0.00,,,0.00,VWS V13.01,2012-06-18 08:29:00,
2012-06-18 03:34:00,75.9,65.4,29.83,NNW,344,0.0,0.0,70,0.00,,,0.00,VWS V13.01,2012-06-18 08:34:00,
2012-06-18 03:39:00,76.0,65.6,29.83,NNW,344,0.0,0.0,70,0.00,,,0.00,VWS V13.01,2012-06-18 08:39:00,
2012-06-18 03:44:00,76.2,65.3,29.83,NNW,344,0.0,0.0,69,0.00,,,0.00,VWS V13.01,2012-06-18 08:44:00,
2012-06-18 03:49:00,76.2,65.3,29.83,NNW,344,0.0,0.0,69,0.00,,,0.00,VWS V13.01,2012-06-18 08:49:00,
2012-06-18 03:54:00,76.2,65.3,29.83,NNW,344,0.0,0.0,69,0.00,,,0.00,VWS V13.01,2012-06-18 08:54:00,
2012-06-18 03:59:00,76.2,65.3,29.83,NNW,344,0.0,0.0,69,0.00,,,0.00,VWS V13.01,2012-06-18 08:59:00,
2012-06-18 04:04:00,76.0,65.1,29.83,NNW,344,0.0,0.0,69,0.00,,,0.00,VWS V13.01,2012-06-18 09:04:00,
2012-06-18 04:09:00,75.9,65.4,29.83,NNW,344,0.0,0.0,70,0.00,,,0.00,VWS V13.01,2012-06-18 09:09:00,
2012-06-18 04:14:00,75.7,65.2,29.83,NNW,344,0.0,0.0,70,0.00,,,0.00,VWS V13.01,2012-06-18 09:14:00,
2012-06-18 04:19:00,75.7,65.6,29.83,NNW,344,0.0,0.0,71,0.00,,,0.00,VWS V13.01,2012-06-18 09:19:00,
2012-06-18 04:24:00,75.5,65.4,29.83,NNW,344,0.0,0.0,71,0.00,,,0.00,VWS V13.01,2012-06-18 09:24:00,
2012-06-18 04:29:00,75.3,65.7,29.83,NNW,344,0.0,0.0,72,0.00,,,0.00,VWS V13.01,2012-06-18 09:29:00,
2012-06-18 04:34:00,75.0,65.7,29.83,NNW,344,0.0,0.0,73,0.00,,,0.00,VWS V13.01,2012-06-18 09:34:00,
2012-06-18 04:39:00,74.6,65.8,29.83,North,352,0.0,0.0,74,0.00,,,0.00,VWS V13.01,2012-06-18 09:39:00,
2012-06-18 04:44:00,74.4,66.0,29.83,North,352,0.0,0.0,75,0.00,,,0.00,VWS V13.01,2012-06-18 09:44:00,
2012-06-18 04:49:00,74.2,66.2,29.83,North,352,0.0,0.0,76,0.00,,,0.00,VWS V13.01,2012-06-18 09:49:00,
2012-06-18 04:54:00,74.2,66.2,29.83,North,352,0.0,0.0,76,0.00,,,0.00,VWS V13.01,2012-06-18 09:54:00,
2012-06-18 04:59:00,74.2,65.8,29.85,North,352,0.0,0.0,75,0.00,,,0.00,VWS V13.01,2012-06-18 09:59:00,
2012-06-18 05:04:00,74.2,66.2,29.85,North,352,0.0,0.0,76,0.00,,,0.00,VWS V13.01,2012-06-18 10:04:00,
2012-06-18 05:09:00,74.2,65.8,29.85,North,352,0.0,0.0,75,0.00,,,0.00,VWS V13.01,2012-06-18 10:09:00,
2012-06-18 05:14:00,74.1,66.0,29.85,North,352,0.0,0.0,76,0.00,,,0.00,VWS V13.01,2012-06-18 10:14:00,
2012-06-18 05:19:00,74.1,66.0,29.85,North,352,0.0,0.0,76,0.00,,,0.00,VWS V13.01,2012-06-18 10:19:00,
2012-06-18 05:24:00,74.1,66.0,29.85,North,352,0.0,0.0,76,0.00,,,0.00,VWS V13.01,2012-06-18 10:24:00,
2012-06-18 05:29:00,74.1,66.0,29.85,North,352,0.0,0.0,76,0.00,,,0.00,VWS V13.01,2012-06-18 10:29:00,
2012-06-18 05:34:00,74.1,66.0,29.85,North,1,0.0,0.0,76,0.00,,,0.00,VWS V13.01,2012-06-18 10:34:00,
2012-06-18 05:39:00,73.9,65.8,29.85,North,2,0.0,0.0,76,0.00,,,0.00,VWS V13.01,2012-06-18 10:39:00,
2012-06-18 05:44:00,73.7,65.7,29.85,North,2,0.0,0.0,76,0.00,,,0.00,VWS V13.01,2012-06-18 10:44:00,
2012-06-18 05:49:00,73.3,65.7,29.85,North,2,0.0,0.0,77,0.00,,,0.00,VWS V13.01,2012-06-18 10:49:00,
2012-06-18 05:54:00,73.3,66.4,29.85,North,2,0.0,0.0,79,0.00,,,0.00,VWS V13.01,2012-06-18 10:54:00,
2012-06-18 05:59:00,73.2,66.3,29.85,North,2,0.0,0.0,79,0.00,,,0.00,VWS V13.01,2012-06-18 10:59:00,
2012-06-18 06:04:00,73.0,66.1,29.85,North,2,0.0,0.0,79,0.00,,,0.00,VWS V13.01,2012-06-18 11:04:00,
2012-06-18 06:09:00,73.0,66.1,29.85,North,360,0.0,0.0,79,0.00,,,0.00,VWS V13.01,2012-06-18 11:09:00,
2012-06-18 06:14:00,73.0,66.1,29.85,North,360,0.0,0.0,79,0.00,,,0.00,VWS V13.01,2012-06-18 11:14:00,
2012-06-18 06:19:00,73.2,66.3,29.85,NNW,338,0.0,0.0,79,0.00,,,0.00,VWS V13.01,2012-06-18 11:19:00,
2012-06-18 06:24:00,73.2,66.3,29.85,NNW,338,0.0,0.0,79,0.00,,,0.00,VWS V13.01,2012-06-18 11:24:00,
2012-06-18 06:29:00,73.3,66.4,29.85,NNW,338,0.0,0.0,79,0.00,,,0.00,VWS V13.01,2012-06-18 11:29:00,
2012-06-18 06:34:00,73.5,66.6,29.85,NNW,343,0.0,0.0,79,0.00,,,0.00,VWS V13.01,2012-06-18 11:34:00,
2012-06-18 06:39:00,73.5,66.2,29.85,North,10,0.0,0.0,78,0.00,,,0.00,VWS V13.01,2012-06-18 11:39:00,
2012-06-18 06:44:00,73.3,66.4,29.85,NNE,27,0.0,0.0,79,0.00,,,0.00,VWS V13.01,2012-06-18 11:44:00,
2012-06-18 06:49:00,73.5,67.0,29.85,NNW,332,0.0,0.0,80,0.00,,,0.00,VWS V13.01,2012-06-18 11:49:00,
2012-06-18 06:54:00,73.7,66.8,29.85,NNW,332,0.0,0.0,79,0.00,,,0.00,VWS V13.01,2012-06-18 11:54:00,
2012-06-18 06:59:00,74.1,67.1,29.85,NNW,340,0.0,0.0,79,0.00,,,0.00,VWS V13.01,2012-06-18 11:59:00,
2012-06-18 07:04:00,74.6,67.3,29.85,NNW,340,0.0,0.0,78,0.00,,,0.00,VWS V13.01,2012-06-18 12:04:00,
2012-06-18 07:09:00,75.1,67.1,29.85,North,6,0.0,0.0,76,0.00,,,0.00,VWS V13.01,2012-06-18 12:09:00,
2012-06-18 07:14:00,75.7,67.2,29.85,North,6,0.0,0.0,75,0.00,,,0.00,VWS V13.01,2012-06-18 12:14:00,
2012-06-18 07:19:00,76.2,66.9,29.85,North,6,0.0,0.0,73,0.00,,,0.00,VWS V13.01,2012-06-18 12:19:00,
2012-06-18 07:24:00,76.8,67.1,29.85,North,6,0.0,0.0,72,0.00,,,0.00,VWS V13.01,2012-06-18 12:24:00,
2012-06-18 07:29:00,77.5,67.3,29.85,NE,36,0.0,0.0,71,0.00,,,0.00,VWS V13.01,2012-06-18 12:29:00,
2012-06-18 07:34:00,78.2,66.8,29.85,East,92,3.1,3.1,68,0.00,,,0.00,VWS V13.01,2012-06-18 12:34:00,
2012-06-18 07:39:00,78.7,66.4,29.85,East,99,0.0,0.0,66,0.00,,,0.00,VWS V13.01,2012-06-18 12:39:00,
2012-06-18 07:44:00,79.1,65.0,29.85,ESE,103,3.6,3.6,62,0.00,,,0.00,VWS V13.01,2012-06-18 12:44:00,
2012-06-18 07:49:00,79.5,65.3,29.85,East,99,3.6,3.6,62,0.00,,,0.00,VWS V13.01,2012-06-18 12:49:00,
2012-06-18 07:54:00,79.8,64.2,29.85,East,96,5.8,5.8,59,0.00,,,0.00,VWS V13.01,2012-06-18 12:54:00,
2012-06-18 07:59:00,80.4,64.2,29.85,East,79,0.0,3.1,58,0.00,,,0.00,VWS V13.01,2012-06-18 12:59:00,
2012-06-18 08:04:00,80.7,65.1,29.85,East,86,2.7,2.7,59,0.00,,,0.00,VWS V13.01,2012-06-18 13:04:00,
2012-06-18 08:09:00,81.1,63.4,29.85,ESE,116,2.7,3.1,55,0.00,,,0.00,VWS V13.01,2012-06-18 13:09:00,
2012-06-18 08:14:00,81.3,63.0,29.88,East,98,5.4,6.3,54,0.00,,,0.00,VWS V13.01,2012-06-18 13:14:00,
2012-06-18 08:19:00,81.3,63.0,29.88,East,93,4.0,4.0,54,0.00,,,0.00,VWS V13.01,2012-06-18 13:19:00,
2012-06-18 08:24:00,81.6,62.8,29.88,ESE,106,4.9,4.9,53,0.00,,,0.00,VWS V13.01,2012-06-18 13:24:00,
2012-06-18 08:29:00,82.0,62.6,29.88,ESE,106,2.7,4.0,52,0.00,,,0.00,VWS V13.01,2012-06-18 13:29:00,
2012-06-18 08:34:00,82.2,62.2,29.88,NE,54,4.0,5.4,51,0.00,,,0.00,VWS V13.01,2012-06-18 13:34:00,
2012-06-18 08:39:00,82.5,62.6,29.88,ESE,107,3.1,4.0,51,0.00,,,0.00,VWS V13.01,2012-06-18 13:39:00,
2012-06-18 08:44:00,82.9,62.3,29.88,ESE,112,3.1,4.9,50,0.00,,,0.00,VWS V13.01,2012-06-18 13:44:00,
2012-06-18 08:49:00,83.2,62.7,29.88,ESE,115,3.6,3.6,50,0.00,,,0.00,VWS V13.01,2012-06-18 13:49:00,
2012-06-18 08:54:00,83.4,61.7,29.88,SE,129,3.1,6.3,48,0.00,,,0.00,VWS V13.01,2012-06-18 13:54:00,
2012-06-18 08:59:00,83.6,60.7,29.88,ENE,77,2.7,2.7,46,0.00,,,0.00,VWS V13.01,2012-06-18 13:59:00,
2012-06-18 09:04:00,83.8,60.8,29.88,SE,127,2.7,3.6,46,0.00,,,0.00,VWS V13.01,2012-06-18 14:04:00,
2012-06-18 09:09:00,84.3,60.7,29.88,SE,130,3.1,5.8,45,0.00,,,0.00,VWS V13.01,2012-06-18 14:09:00,
2012-06-18 09:14:00,84.5,60.2,29.88,SE,129,4.0,4.9,44,0.00,,,0.00,VWS V13.01,2012-06-18 14:14:00,
2012-06-18 09:19:00,85.0,60.1,29.88,SSE,151,3.6,5.8,43,0.00,,,0.00,VWS V13.01,2012-06-18 14:19:00,
2012-06-18 09:24:00,84.9,59.9,29.88,ESE,118,5.4,5.4,43,0.00,,,0.00,VWS V13.01,2012-06-18 14:24:00,
2012-06-18 09:29:00,85.0,60.7,29.88,SSE,154,5.8,5.8,44,0.00,,,0.00,VWS V13.01,2012-06-18 14:29:00,
2012-06-18 09:34:00,84.9,60.5,29.88,ENE,66,6.3,8.3,44,0.00,,,0.00,VWS V13.01,2012-06-18 14:34:00,
2012-06-18 09:39:00,85.4,60.4,29.88,SE,127,5.4,5.8,43,0.00,,,0.00,VWS V13.01,2012-06-18 14:39:00,
2012-06-18 09:44:00,85.2,60.2,29.88,ESE,106,3.6,4.9,43,0.00,,,0.00,VWS V13.01,2012-06-18 14:44:00,
2012-06-18 09:49:00,85.4,60.4,29.88,East,81,5.4,6.3,43,0.00,,,0.00,VWS V13.01,2012-06-18 14:49:00,
2012-06-18 09:54:00,85.6,60.5,29.88,South,169,5.8,5.8,43,0.00,,,0.00,VWS V13.01,2012-06-18 14:54:00,
2012-06-18 09:58:00,85.8,60.7,29.88,SSE,168,2.7,4.0,43,0.00,,,0.00,VWS V13.01,2012-06-18 14:58:00,
2012-06-18 10:03:00,86.5,60.0,29.88,East,94,6.3,6.3,41,0.00,,,0.00,VWS V13.01,2012-06-18 15:03:00,
2012-06-18 10:08:00,86.1,60.4,29.88,NE,50,4.0,4.9,42,0.00,,,0.00,VWS V13.01,2012-06-18 15:08:00,
2012-06-18 10:13:00,86.8,60.3,29.88,NE,48,6.3,6.3,41,0.00,,,0.00,VWS V13.01,2012-06-18 15:13:00,
2012-06-18 10:18:00,86.5,60.0,29.88,East,94,5.8,5.8,41,0.00,,,0.00,VWS V13.01,2012-06-18 15:18:00,
2012-06-18 10:23:00,86.8,60.3,29.88,East,90,4.9,5.4,41,0.00,,,0.00,VWS V13.01,2012-06-18 15:23:00,
2012-06-18 10:28:00,87.2,60.0,29.88,SE,143,2.7,3.6,40,0.00,,,0.00,VWS V13.01,2012-06-18 15:28:00,
2012-06-18 10:33:00,87.7,59.7,29.88,South,184,5.4,5.4,39,0.00,,,0.00,VWS V13.01,2012-06-18 15:33:00,
2012-06-18 10:38:00,88.3,60.2,29.88,SE,143,5.4,5.8,39,0.00,,,0.00,VWS V13.01,2012-06-18 15:38:00,
2012-06-18 10:43:00,89.0,60.1,29.88,SSE,159,4.9,4.9,38,0.00,,,0.00,VWS V13.01,2012-06-18 15:43:00,
2012-06-18 10:48:00,89.4,57.3,29.88,South,171,5.8,8.1,34,0.00,,,0.00,VWS V13.01,2012-06-18 15:48:00,
2012-06-18 10:53:00,88.8,56.9,29.88,SSE,150,7.6,8.1,34,0.00,,,0.00,VWS V13.01,2012-06-18 15:53:00,
2012-06-18 10:58:00,89.0,56.2,29.88,ESE,113,7.6,7.6,33,0.00,,,0.00,VWS V13.01,2012-06-18 15:58:00,
2012-06-18 11:03:00,89.5,57.5,29.88,SSE,156,4.9,4.9,34,0.00,,,0.00,VWS V13.01,2012-06-18 16:03:00,
2012-06-18 11:08:00,90.1,57.1,29.88,SW,218,6.3,6.3,33,0.00,,,0.00,VWS V13.01,2012-06-18 16:08:00,
2012-06-18 11:13:00,90.1,56.3,29.88,SSE,166,11.0,11.0,32,0.00,,,0.00,VWS V13.01,2012-06-18 16:13:00,
2012-06-18 11:18:00,89.9,57.0,29.88,ESE,112,5.8,5.8,33,0.00,,,0.00,VWS V13.01,2012-06-18 16:18:00,
2012-06-18 11:23:00,90.1,57.1,29.88,ESE,110,3.6,3.6,33,0.00,,,0.00,VWS V13.01,2012-06-18 16:23:00,
2012-06-18 11:28:00,90.6,57.6,29.88,SE,129,6.3,8.1,33,0.00,,,0.00,VWS V13.01,2012-06-18 16:28:00,
2012-06-18 11:33:00,91.0,57.1,29.88,SSE,156,2.2,3.1,32,0.00,,,0.00,VWS V13.01,2012-06-18 16:33:00,
2012-06-18 11:38:00,91.3,57.4,29.88,East,82,8.3,8.3,32,0.00,,,0.00,VWS V13.01,2012-06-18 16:38:00,
2012-06-18 11:43:00,91.3,58.2,29.88,SSW,193,6.3,6.3,33,0.00,,,0.00,VWS V13.01,2012-06-18 16:43:00,
2012-06-18 11:48:00,91.0,57.9,29.88,SSW,194,3.1,6.3,33,0.00,,,0.00,VWS V13.01,2012-06-18 16:48:00,
2012-06-18 11:53:00,90.8,57.8,29.88,SE,130,8.1,8.1,33,0.00,,,0.00,VWS V13.01,2012-06-18 16:53:00,
2012-06-18 11:58:00,91.7,58.5,29.88,WSW,239,3.1,5.8,33,0.00,,,0.00,VWS V13.01,2012-06-18 16:58:00,
2012-06-18 12:03:00,91.7,57.7,29.88,SE,143,5.4,8.7,32,0.00,,,0.00,VWS V13.01,2012-06-18 17:03:00,
2012-06-18 12:08:00,91.7,58.5,29.88,East,94,8.7,8.7,33,0.00,,,0.00,VWS V13.01,2012-06-18 17:08:00,
2012-06-18 12:13:00,92.1,58.8,29.88,SW,229,5.4,8.1,33,0.00,,,0.00,VWS V13.01,2012-06-18 17:13:00,
2012-06-18 12:18:00,92.6,58.5,29.85,SSE,147,5.4,8.3,32,0.00,,,0.00,VWS V13.01,2012-06-18 17:18:00,
2012-06-18 12:23:00,92.8,58.6,29.85,SE,124,8.1,8.1,32,0.00,,,0.00,VWS V13.01,2012-06-18 17:23:00,
2012-06-18 12:28:00,93.0,57.9,29.85,South,172,7.6,8.3,31,0.00,,,0.00,VWS V13.01,2012-06-18 17:28:00,
2012-06-18 12:33:00,93.3,58.2,29.85,SSE,162,8.3,8.3,31,0.00,,,0.00,VWS V13.01,2012-06-18 17:33:00,
2012-06-18 12:38:00,93.0,57.9,29.85,SE,126,2.7,5.8,31,0.00,,,0.00,VWS V13.01,2012-06-18 17:38:00,
2012-06-18 12:43:00,93.5,58.4,29.85,ESE,115,4.9,6.3,31,0.00,,,0.00,VWS V13.01,2012-06-18 17:43:00,
2012-06-18 12:48:00,93.5,58.4,29.85,ESE,120,4.9,8.3,31,0.00,,,0.00,VWS V13.01,2012-06-18 17:48:00,
2012-06-18 12:53:00,93.9,57.8,29.85,ESE,110,4.5,7.6,30,0.00,,,0.00,VWS V13.01,2012-06-18 17:53:00,
2012-06-18 12:58:00,94.4,58.2,29.85,South,191,8.3,8.3,30,0.00,,,0.00,VWS V13.01,2012-06-18 17:58:00,
2012-06-18 13:03:00,94.9,58.7,29.85,SE,143,10.5,11.9,30,0.00,,,0.00,VWS V13.01,2012-06-18 18:03:00,
2012-06-18 13:08:00,94.6,58.4,29.85,SE,143,4.9,6.3,30,0.00,,,0.00,VWS V13.01,2012-06-18 18:08:00,
2012-06-18 13:13:00,94.4,57.3,29.85,ESE,115,5.4,8.3,29,0.00,,,0.00,VWS V13.01,2012-06-18 18:13:00,
2012-06-18 13:18:00,94.8,57.6,29.85,South,187,11.0,11.4,29,0.00,,,0.00,VWS V13.01,2012-06-18 18:18:00,
2012-06-18 13:23:00,94.6,57.4,29.85,ESE,122,8.3,8.3,29,0.00,,,0.00,VWS V13.01,2012-06-18 18:23:00,
2012-06-18 13:28:00,94.2,58.1,29.85,SSE,147,4.9,5.4,30,0.00,,,0.00,VWS V13.01,2012-06-18 18:28:00,
2012-06-18 13:33:00,93.7,57.6,29.85,SE,129,7.6,10.5,30,0.00,,,0.00,VWS V13.01,2012-06-18 18:33:00,
2012-06-18 13:38:00,93.9,57.8,29.85,SE,140,4.0,7.6,30,0.00,,,0.00,VWS V13.01,2012-06-18 18:38:00,
2012-06-18 13:43:00,93.3,57.3,29.85,SE,130,8.3,8.7,30,0.00,,,0.00,VWS V13.01,2012-06-18 18:43:00,
2012-06-18 13:48:00,94.0,57.9,29.85,East,96,3.6,5.4,30,0.00,,,0.00,VWS V13.01,2012-06-18 18:48:00,
2012-06-18 13:53:00,94.2,58.1,29.85,SE,133,8.3,8.7,30,0.00,,,0.00,VWS V13.01,2012-06-18 18:53:00,
2012-06-18 13:58:00,94.2,58.1,29.85,SSE,156,11.0,13.6,30,0.00,,,0.00,VWS V13.01,2012-06-18 18:58:00,
2012-06-18 14:03:00,93.7,57.6,29.85,ESE,103,5.4,8.7,30,0.00,,,0.00,VWS V13.01,2012-06-18 19:03:00,
2012-06-18 14:08:00,94.8,57.6,29.85,SE,128,5.8,11.0,29,0.00,,,0.00,VWS V13.01,2012-06-18 19:08:00,
2012-06-18 14:13:00,95.3,58.0,29.85,SSE,152,7.6,7.6,29,0.00,,,0.00,VWS V13.01,2012-06-18 19:13:00,
2012-06-18 14:18:00,96.2,57.8,29.83,South,179,10.5,10.5,28,0.00,,,0.00,VWS V13.01,2012-06-18 19:18:00,
2012-06-18 14:23:00,96.2,57.8,29.83,SE,127,5.4,7.2,28,0.00,,,0.00,VWS V13.01,2012-06-18 19:23:00,
2012-06-18 14:28:00,95.7,58.3,29.83,SE,126,2.7,4.9,29,0.00,,,0.00,VWS V13.01,2012-06-18 19:28:00,
2012-06-18 14:33:00,95.7,58.3,29.83,ESE,104,6.3,6.3,29,0.00,,,0.00,VWS V13.01,2012-06-18 19:33:00,
2012-06-18 14:38:00,96.2,57.8,29.83,ESE,110,5.4,5.8,28,0.00,,,0.00,VWS V13.01,2012-06-18 19:38:00,
2012-06-18 14:43:00,96.0,57.7,29.83,SSE,156,5.4,5.4,28,0.00,,,0.00,VWS V13.01,2012-06-18 19:43:00,
2012-06-18 14:48:00,95.5,57.2,29.83,East,98,5.4,8.3,28,0.00,,,0.00,VWS V13.01,2012-06-18 19:48:00,
2012-06-18 14:53:00,95.7,57.4,29.83,SE,136,10.1,10.1,28,0.00,,,0.00,VWS V13.01,2012-06-18 19:53:00,
2012-06-18 14:58:00,95.7,57.4,29.83,SSE,162,10.5,10.5,28,0.00,,,0.00,VWS V13.01,2012-06-18 19:58:00,
2012-06-18 15:03:00,96.0,57.7,29.83,East,98,8.3,8.3,28,0.00,,,0.00,VWS V13.01,2012-06-18 20:03:00,
2012-06-18 15:08:00,96.2,57.8,29.83,East,93,2.7,3.1,28,0.00,,,0.00,VWS V13.01,2012-06-18 20:08:00,
2012-06-18 15:13:00,95.8,57.5,29.83,SSE,158,5.8,11.4,28,0.00,,,0.00,VWS V13.01,2012-06-18 20:13:00,
2012-06-18 15:18:00,95.7,57.4,29.83,SW,215,13.2,13.2,28,0.00,,,0.00,VWS V13.01,2012-06-18 20:18:00,
2012-06-18 15:23:00,95.3,58.0,29.83,SE,131,5.4,8.3,29,0.00,,,0.00,VWS V13.01,2012-06-18 20:23:00,
2012-06-18 15:28:00,94.9,57.7,29.83,SSW,207,8.3,8.3,29,0.00,,,0.00,VWS V13.01,2012-06-18 20:28:00,
2012-06-18 15:33:00,94.9,57.7,29.83,South,183,7.6,8.3,29,0.00,,,0.00,VWS V13.01,2012-06-18 20:33:00,
2012-06-18 15:38:00,95.1,57.9,29.83,SSE,150,5.8,8.3,29,0.00,,,0.00,VWS V13.01,2012-06-18 20:38:00,
2012-06-18 15:43:00,95.5,58.2,29.83,SSE,164,5.8,8.3,29,0.00,,,0.00,VWS V13.01,2012-06-18 20:43:00,
2012-06-18 15:48:00,96.0,58.7,29.83,ESE,120,4.9,4.9,29,0.00,,,0.00,VWS V13.01,2012-06-18 20:48:00,
2012-06-18 15:53:00,96.4,58.0,29.83,ESE,102,10.5,10.5,28,0.00,,,0.00,VWS V13.01,2012-06-18 20:53:00,
2012-06-18 15:58:00,96.9,58.5,29.83,ESE,105,8.3,8.7,28,0.00,,,0.00,VWS V13.01,2012-06-18 20:58:00,
2012-06-18 16:03:00,96.7,58.3,29.83,ESE,119,5.8,6.3,28,0.00,,,0.00,VWS V13.01,2012-06-18 21:03:00,
2012-06-18 16:08:00,96.7,58.3,29.83,ESE,116,6.7,6.7,28,0.00,,,0.00,VWS V13.01,2012-06-18 21:08:00,
2012-06-18 16:13:00,96.7,58.3,29.83,ESE,123,8.3,8.7,28,0.00,,,0.00,VWS V13.01,2012-06-18 21:13:00,
2012-06-18 16:18:00,96.7,58.3,29.83,South,191,9.2,9.2,28,0.00,,,0.00,VWS V13.01,2012-06-18 21:18:00,
2012-06-18 16:23:00,95.7,57.4,29.83,SSE,150,7.6,7.6,28,0.00,,,0.00,VWS V13.01,2012-06-18 21:23:00,
2012-06-18 16:28:00,95.7,58.3,29.83,ESE,116,5.4,6.3,29,0.00,,,0.00,VWS V13.01,2012-06-18 21:28:00,
2012-06-18 16:33:00,95.1,57.9,29.83,South,169,8.3,8.3,29,0.00,,,0.00,VWS V13.01,2012-06-18 21:33:00,
2012-06-18 16:38:00,94.8,57.6,29.83,South,190,8.3,8.3,29,0.00,,,0.00,VWS V13.01,2012-06-18 21:38:00,
2012-06-18 16:43:00,95.1,57.9,29.83,SE,127,4.0,6.3,29,0.00,,,0.00,VWS V13.01,2012-06-18 21:43:00,
2012-06-18 16:48:00,96.0,57.7,29.83,SSE,161,10.5,10.5,28,0.00,,,0.00,VWS V13.01,2012-06-18 21:48:00,
2012-06-18 16:53:00,96.0,58.7,29.83,ESE,118,7.2,10.1,29,0.00,,,0.00,VWS V13.01,2012-06-18 21:53:00,
2012-06-18 16:58:00,95.5,57.2,29.83,SSE,147,5.8,8.3,28,0.00,,,0.00,VWS V13.01,2012-06-18 21:58:00,
2012-06-18 17:03:00,96.0,57.7,29.83,SE,128,5.8,6.3,28,0.00,,,0.00,VWS V13.01,2012-06-18 22:03:00,
2012-06-18 17:08:00,96.0,57.7,29.83,SE,127,6.3,6.3,28,0.00,,,0.00,VWS V13.01,2012-06-18 22:08:00,
2012-06-18 17:13:00,96.4,58.0,29.83,South,189,8.3,8.3,28,0.00,,,0.00,VWS V13.01,2012-06-18 22:13:00,
2012-06-18 17:18:00,96.0,57.7,29.83,SSE,150,11.0,11.0,28,0.00,,,0.00,VWS V13.01,2012-06-18 22:18:00,
2012-06-18 17:23:00,95.8,57.5,29.83,South,174,4.0,4.9,28,0.00,,,0.00,VWS V13.01,2012-06-18 22:23:00,
2012-06-18 17:28:00,96.0,57.7,29.83,SSE,150,3.1,4.9,28,0.00,,,0.00,VWS V13.01,2012-06-18 22:28:00,
2012-06-18 17:33:00,96.6,58.1,29.83,SSW,203,7.6,8.3,28,0.00,,,0.00,VWS V13.01,2012-06-18 22:33:00,
2012-06-18 17:38:00,96.2,57.8,29.83,ESE,121,7.6,10.1,28,0.00,,,0.00,VWS V13.01,2012-06-18 22:38:00,
2012-06-18 17:42:00,95.7,57.4,29.83,SE,125,5.8,5.8,28,0.00,,,0.00,VWS V13.01,2012-06-18 22:42:00,
2012-06-18 17:47:00,95.5,57.2,29.83,South,176,6.3,6.3,28,0.00,,,0.00,VWS V13.01,2012-06-18 22:47:00,
2012-06-18 17:52:00,95.8,57.5,29.83,SE,143,5.8,5.8,28,0.00,,,0.00,VWS V13.01,2012-06-18 22:52:00,
2012-06-18 17:57:00,95.8,57.5,29.83,ESE,122,5.8,5.8,28,0.00,,,0.00,VWS V13.01,2012-06-18 22:57:00,
2012-06-18 18:02:00,96.0,57.7,29.83,South,184,9.2,11.0,28,0.00,,,0.00,VWS V13.01,2012-06-18 23:02:00,
2012-06-18 18:07:00,95.7,57.4,29.83,South,169,8.1,8.7,28,0.00,,,0.00,VWS V13.01,2012-06-18 23:07:00,
2012-06-18 18:12:00,95.5,57.2,29.83,South,182,8.1,8.1,28,0.00,,,0.00,VWS V13.01,2012-06-18 23:12:00,
2012-06-18 18:17:00,95.3,57.1,29.80,South,171,10.1,10.1,28,0.00,,,0.00,VWS V13.01,2012-06-18 23:17:00,
2012-06-18 18:22:00,95.5,57.2,29.80,ESE,110,8.7,8.7,28,0.00,,,0.00,VWS V13.01,2012-06-18 23:22:00,
2012-06-18 18:27:00,95.3,57.1,29.80,NE,54,11.0,11.0,28,0.00,,,0.00,VWS V13.01,2012-06-18 23:27:00,
2012-06-18 18:32:00,94.9,56.8,29.83,ESE,103,7.6,7.6,28,0.00,,,0.00,VWS V13.01,2012-06-18 23:32:00,
2012-06-18 18:37:00,94.8,56.6,29.83,ESE,109,7.6,7.6,28,0.00,,,0.00,VWS V13.01,2012-06-18 23:37:00,
2012-06-18 18:42:00,94.8,56.6,29.83,SE,133,5.4,8.1,28,0.00,,,0.00,VWS V13.01,2012-06-18 23:42:00,
2012-06-18 18:47:00,94.8,56.6,29.83,SSE,150,5.4,5.4,28,0.00,,,0.00,VWS V13.01,2012-06-18 23:47:00,
2012-06-18 18:52:00,94.6,56.5,29.83,South,172,8.7,8.7,28,0.00,,,0.00,VWS V13.01,2012-06-18 23:52:00,
2012-06-18 18:57:00,94.4,57.3,29.83,ESE,109,6.3,8.7,29,0.00,,,0.00,VWS V13.01,2012-06-18 23:57:00,
2012-06-18 19:02:00,94.2,57.1,29.83,South,174,8.1,10.1,29,0.00,,,0.00,VWS V13.01,2012-06-19 00:02:00,
2012-06-18 19:07:00,93.7,56.7,29.83,SE,126,4.5,7.2,29,0.00,,,0.00,VWS V13.01,2012-06-19 00:07:00,
2012-06-18 19:12:00,93.7,56.7,29.83,ESE,112,6.3,6.3,29,0.00,,,0.00,VWS V13.01,2012-06-19 00:12:00,
2012-06-18 19:17:00,93.5,56.5,29.83,SSW,203,10.5,10.5,29,0.00,,,0.00,VWS V13.01,2012-06-19 00:17:00,
2012-06-18 19:22:00,93.3,56.3,29.83,SSE,167,4.0,7.2,29,0.00,,,0.00,VWS V13.01,2012-06-19 00:22:00,
2012-06-18 19:27:00,93.1,56.2,29.83,SE,134,5.4,11.0,29,0.00,,,0.00,VWS V13.01,2012-06-19 00:27:00,
2012-06-18 19:32:00,93.0,56.0,29.83,SSE,147,10.5,10.5,29,0.00,,,0.00,VWS V13.01,2012-06-19 00:32:00,
2012-06-18 19:37:00,92.8,55.9,29.83,SSE,167,5.4,5.4,29,0.00,,,0.00,VWS V13.01,2012-06-19 00:37:00,
2012-06-18 19:42:00,92.6,56.7,29.83,SE,127,4.0,7.6,30,0.00,,,0.00,VWS V13.01,2012-06-19 00:42:00,
2012-06-18 19:47:00,92.6,56.7,29.83,SE,131,8.7,8.7,30,0.00,,,0.00,VWS V13.01,2012-06-19 00:47:00,
2012-06-18 19:52:00,92.2,56.4,29.83,South,169,3.6,5.4,30,0.00,,,0.00,VWS V13.01,2012-06-19 00:52:00,
2012-06-18 19:57:00,92.1,56.2,29.83,ESE,123,7.2,7.2,30,0.00,,,0.00,VWS V13.01,2012-06-19 00:57:00,
2012-06-18 20:02:00,91.7,56.8,29.83,ESE,121,5.4,5.4,31,0.00,,,0.00,VWS V13.01,2012-06-19 01:02:00,
2012-06-18 20:07:00,91.5,55.7,29.83,SSE,147,7.6,11.0,30,0.00,,,0.00,VWS V13.01,2012-06-19 01:07:00,
2012-06-18 20:12:00,91.3,55.6,29.83,East,79,6.7,8.7,30,0.00,,,0.00,VWS V13.01,2012-06-19 01:12:00,
2012-06-18 20:17:00,91.2,55.4,29.83,SE,130,5.8,8.1,30,0.00,,,0.00,VWS V13.01,2012-06-19 01:17:00,
2012-06-18 20:22:00,90.8,56.0,29.83,SSE,150,8.1,8.3,31,0.00,,,0.00,VWS V13.01,2012-06-19 01:22:00,
2012-06-18 20:27:00,90.4,55.7,29.83,SE,143,5.8,8.3,31,0.00,,,0.00,VWS V13.01,2012-06-19 01:27:00,
2012-06-18 20:32:00,90.3,56.4,29.83,SE,125,4.0,4.0,32,0.00,,,0.00,VWS V13.01,2012-06-19 01:32:00,
2012-06-18 20:37:00,90.1,56.3,29.83,ESE,120,5.8,5.8,32,0.00,,,0.00,VWS V13.01,2012-06-19 01:37:00,
2012-06-18 20:42:00,89.9,56.1,29.83,ESE,112,5.4,5.8,32,0.00,,,0.00,VWS V13.01,2012-06-19 01:42:00,
2012-06-18 20:47:00,89.7,56.8,29.85,South,170,5.4,6.7,33,0.00,,,0.00,VWS V13.01,2012-06-19 01:47:00,
2012-06-18 20:52:00,89.5,56.7,29.85,SSE,159,3.6,5.4,33,0.00,,,0.00,VWS V13.01,2012-06-19 01:52:00,
2012-06-18 20:57:00,89.2,57.2,29.85,SSE,147,2.7,3.1,34,0.00,,,0.00,VWS V13.01,2012-06-19 01:57:00,
2012-06-18 21:02:00,89.0,57.8,29.85,SSE,160,2.7,2.7,35,0.00,,,0.00,VWS V13.01,2012-06-19 02:02:00,
2012-06-18 21:07:00,88.8,58.5,29.85,SSE,168,2.7,2.7,36,0.00,,,0.00,VWS V13.01,2012-06-19 02:07:00,
2012-06-18 21:12:00,88.5,58.9,29.85,ESE,123,3.6,4.0,37,0.00,,,0.00,VWS V13.01,2012-06-19 02:12:00,
2012-06-18 21:17:00,88.3,58.7,29.85,SE,135,6.3,6.3,37,0.00,,,0.00,VWS V13.01,2012-06-19 02:17:00,
2012-06-18 21:22:00,88.1,59.3,29.85,SSE,151,5.8,8.1,38,0.00,,,0.00,VWS V13.01,2012-06-19 02:22:00,
2012-06-18 21:27:00,88.1,59.3,29.85,ESE,122,3.1,3.1,38,0.00,,,0.00,VWS V13.01,2012-06-19 02:27:00,
2012-06-18 21:32:00,87.9,59.9,29.85,SSE,156,4.9,4.9,39,0.00,,,0.00,VWS V13.01,2012-06-19 02:32:00,
2012-06-18 21:37:00,87.7,59.7,29.85,SSE,167,5.4,6.3,39,0.00,,,0.00,VWS V13.01,2012-06-19 02:37:00,
2012-06-18 21:42:00,87.6,59.6,29.85,ESE,110,5.8,5.8,39,0.00,,,0.00,VWS V13.01,2012-06-19 02:42:00,
2012-06-18 21:47:00,87.6,59.6,29.85,ESE,106,3.6,3.6,39,0.00,,,0.00,VWS V13.01,2012-06-19 02:47:00,
2012-06-18 21:52:00,87.4,60.1,29.85,SE,128,4.0,4.0,40,0.00,,,0.00,VWS V13.01,2012-06-19 02:52:00,
2012-06-18 21:57:00,87.4,60.1,29.85,East,97,2.7,3.6,40,0.00,,,0.00,VWS V13.01,2012-06-19 02:57:00,
2012-06-18 22:02:00,87.2,60.0,29.85,SSE,147,4.0,4.0,40,0.00,,,0.00,VWS V13.01,2012-06-19 03:02:00,
2012-06-18 22:07:00,87.0,60.5,29.85,SSE,163,5.4,5.4,41,0.00,,,0.00,VWS V13.01,2012-06-19 03:07:00,
2012-06-18 22:12:00,86.8,60.3,29.85,SE,134,3.1,3.1,41,0.00,,,0.00,VWS V13.01,2012-06-19 03:12:00,
2012-06-18 22:17:00,86.8,60.3,29.85,SSE,162,5.8,5.8,41,0.00,,,0.00,VWS V13.01,2012-06-19 03:17:00,
2012-06-18 22:22:00,86.8,60.3,29.85,ESE,121,5.8,5.8,41,0.00,,,0.00,VWS V13.01,2012-06-19 03:22:00,
2012-06-18 22:27:00,86.7,60.2,29.85,SSE,147,3.6,6.3,41,0.00,,,0.00,VWS V13.01,2012-06-19 03:27:00,
2012-06-18 22:32:00,86.7,60.2,29.88,ESE,117,4.0,6.3,41,0.00,,,0.00,VWS V13.01,2012-06-19 03:32:00,
2012-06-18 22:37:00,86.5,60.0,29.88,SSE,165,3.6,3.6,41,0.00,,,0.00,VWS V13.01,2012-06-19 03:37:00,
2012-06-18 22:42:00,86.3,60.5,29.88,South,179,2.7,5.4,42,0.00,,,0.00,VWS V13.01,2012-06-19 03:42:00,
2012-06-18 22:47:00,86.1,60.4,29.88,SE,143,2.7,4.9,42,0.00,,,0.00,VWS V13.01,2012-06-19 03:47:00,
2012-06-18 22:52:00,85.9,60.2,29.88,ESE,102,2.7,5.4,42,0.00,,,0.00,VWS V13.01,2012-06-19 03:52:00,
2012-06-18 22:57:00,85.8,60.0,29.88,ESE,119,3.1,4.9,42,0.00,,,0.00,VWS V13.01,2012-06-19 03:57:00,
2012-06-18 23:00:00,85.6,60.5,29.88,SE,130,3.1,4.0,43,0.00,,,0.00,VWS V13.01,2012-06-19 04:00:00,
2012-06-18 23:05:00,85.4,60.4,29.88,SSE,155,2.7,3.1,43,0.00,,,0.00,VWS V13.01,2012-06-19 04:05:00,
2012-06-18 23:10:00,85.2,60.9,29.88,South,169,4.0,4.0,44,0.00,,,0.00,VWS V13.01,2012-06-19 04:10:00,
2012-06-18 23:15:00,85.0,60.7,29.88,SE,127,2.2,5.4,44,0.00,,,0.00,VWS V13.01,2012-06-19 04:15:00,
2012-06-18 23:20:00,84.9,60.5,29.88,SE,135,3.6,3.6,44,0.00,,,0.00,VWS V13.01,2012-06-19 04:20:00,
2012-06-18 23:25:00,84.7,61.0,29.88,SSE,165,3.1,3.1,45,0.00,,,0.00,VWS V13.01,2012-06-19 04:25:00,
2012-06-18 23:30:00,84.5,60.8,29.88,ESE,122,0.0,0.0,45,0.00,,,0.00,VWS V13.01,2012-06-19 04:30:00,
2012-06-18 23:35:00,84.3,61.3,29.88,SSE,162,4.0,4.0,46,0.00,,,0.00,VWS V13.01,2012-06-19 04:35:00,
2012-06-18 23:40:00,84.3,61.3,29.88,SSE,152,5.4,5.4,46,0.00,,,0.00,VWS V13.01,2012-06-19 04:40:00,
2012-06-18 23:45:00,84.1,61.8,29.88,South,172,2.7,2.7,47,0.00,,,0.00,VWS V13.01,2012-06-19 04:45:00,
2012-06-18 23:50:00,84.0,61.6,29.88,South,178,3.1,3.6,47,0.00,,,0.00,VWS V13.01,2012-06-19 04:50:00,
2012-06-18 23:55:00,84.0,61.6,29.88,South,179,2.7,2.7,47,0.00,,,0.00,VWS V13.01,2012-06-19 04:55:00,